North Beach, Maryland
Current Conditions -  °F | °C
As of 11:54 PM on Friday 24 Oct 2014 (Local Time) from KNAK Reporting Station
Clear Clear  
Wind Chill: 13°   Ceiling: Unl
Heat Index: 13°   Visibility: 10mi
Dew Point:   Wind: 6mph
Humidity: 51%   Direction: 290°WNW
Pressure: 29.93"   Gusts: NA
Location:  38.71°N, 76.53°W
Report Text: KNAK 250354Z AUTO 29005KT 10SM CLR 13/03 A2993 RMK AO2 SLP138 T01280028
Loading
Personal Weather Stations






























Interactive Weather Map
Tropical Storm Tracking
New forecast layout! Learn more

10-Day Weather Forecast

Advertisements
Track Severe Weather on mobile